createdAt,value
2022-07-29T00:02:25.687Z,98390.75
2022-07-29T00:04:52.468Z,98394.53
2022-07-29T00:07:19.201Z,98402.72
2022-07-29T00:09:51.676Z,98400.13
2022-07-29T00:12:26.528Z,98386.91
2022-07-29T00:14:57.039Z,98381.16
2022-07-29T00:17:24.986Z,98387.38
2022-07-29T00:19:52.145Z,98390.66
2022-07-29T00:22:20.230Z,98381.84
2022-07-29T00:24:49.908Z,98377.66
2022-07-29T00:27:16.855Z,98378.94
2022-07-29T00:29:43.405Z,98387.38
2022-07-29T00:32:10.192Z,98381.50
2022-07-29T00:34:55.037Z,98383.56
2022-07-29T00:37:22.030Z,98376.53
2022-07-29T00:39:48.755Z,98385.59
2022-07-29T00:42:15.514Z,98394.50
2022-07-29T00:44:42.748Z,98390.13
2022-07-29T00:47:11.357Z,98386.69
2022-07-29T00:49:40.339Z,98381.44
2022-07-29T00:52:08.771Z,98381.31
2022-07-29T00:54:37.442Z,98381.50
2022-07-29T00:57:10.706Z,98375.75
2022-07-29T00:59:37.296Z,98372.44
2022-07-29T01:02:04.391Z,98372.56
2022-07-29T01:04:32.846Z,98381.91
2022-07-29T01:07:02.925Z,98390.53
2022-07-29T01:09:42.981Z,98383.00
2022-07-29T01:12:19.866Z,98381.47
2022-07-29T01:14:48.409Z,98389.28
2022-07-29T01:17:33.257Z,98379.72
2022-07-29T01:20:09.043Z,98381.63
2022-07-29T01:22:35.629Z,98375.03
2022-07-29T01:25:35.470Z,98381.22
2022-07-29T01:28:21.631Z,98383.00
2022-07-29T01:30:53.103Z,98373.38
2022-07-29T01:33:41.709Z,98366.72
2022-07-29T01:36:28.926Z,98368.03
2022-07-29T01:39:06.194Z,98366.47
2022-07-29T01:41:36.024Z,98370.59
2022-07-29T01:44:18.435Z,98358.94
2022-07-29T01:46:53.455Z,98362.56
2022-07-29T01:49:28.508Z,98366.44
2022-07-29T01:52:08.919Z,98368.63
2022-07-29T01:54:43.851Z,98373.28
2022-07-29T01:57:18.275Z,98370.00
2022-07-29T01:59:47.400Z,98365.34
2022-07-29T02:02:16.715Z,98365.22
2022-07-29T02:04:45.644Z,98361.94
2022-07-29T02:07:16.694Z,98361.66
2022-07-29T02:09:45.104Z,98365.34
2022-07-29T02:12:14.225Z,98367.66
2022-07-29T02:14:48.478Z,98365.63
2022-07-29T02:17:23.243Z,98367.97
2022-07-29T02:19:51.025Z,98358.97
2022-07-29T02:22:20.419Z,98360.41
2022-07-29T02:24:48.587Z,98347.69
2022-07-29T02:27:16.187Z,98336.63
2022-07-29T02:29:43.930Z,98345.31
2022-07-29T02:32:13.794Z,98346.03
2022-07-29T02:34:42.515Z,98351.59
2022-07-29T02:37:12.142Z,98369.84
2022-07-29T02:39:41.861Z,98376.31
2022-07-29T02:42:11.061Z,98367.28
2022-07-29T02:44:38.329Z,98362.88
2022-07-29T02:47:31.379Z,98366.00
2022-07-29T02:50:14.271Z,98357.63
2022-07-29T02:52:45.473Z,98360.03
2022-07-29T02:55:16.235Z,98361.38
2022-07-29T02:57:54.104Z,98350.56
2022-07-29T03:00:22.773Z,98359.06
2022-07-29T03:02:53.767Z,98358.91
2022-07-29T03:05:22.007Z,98363.00
2022-07-29T03:07:56.487Z,98358.22
2022-07-29T03:10:26.001Z,98368.47
2022-07-29T03:12:52.968Z,98374.66
2022-07-29T03:15:20.282Z,98364.94
2022-07-29T03:17:47.371Z,98360.97
2022-07-29T03:20:14.693Z,98368.59
2022-07-29T03:22:48.047Z,98363.69
2022-07-29T03:25:16.953Z,98367.00
2022-07-29T03:27:44.555Z,98363.16
2022-07-29T03:30:12.440Z,98366.91
2022-07-29T03:32:47.853Z,98360.88
2022-07-29T03:35:15.113Z,98363.66
2022-07-29T03:37:41.739Z,98368.09
2022-07-29T03:40:09.628Z,98356.19
2022-07-29T03:42:38.940Z,98348.63
2022-07-29T03:45:12.058Z,98336.63
2022-07-29T03:47:49.969Z,98343.28
2022-07-29T03:50:17.994Z,98343.69
2022-07-29T03:52:45.410Z,98348.38
2022-07-29T03:55:12.957Z,98345.34
2022-07-29T03:57:41.021Z,98358.06
2022-07-29T04:00:10.884Z,98354.00
2022-07-29T04:02:39.638Z,98354.94
2022-07-29T04:05:06.556Z,98358.34
2022-07-29T04:07:33.239Z,98358.78
2022-07-29T04:09:59.866Z,98359.06
2022-07-29T04:12:26.470Z,98364.25
2022-07-29T04:14:52.999Z,98364.53
2022-07-29T04:17:19.659Z,98370.13
2022-07-29T04:19:46.240Z,98366.59
2022-07-29T04:22:13.228Z,98362.34
2022-07-29T04:24:44.062Z,98363.19
2022-07-29T04:27:10.988Z,98358.94
2022-07-29T04:29:37.498Z,98367.28
2022-07-29T04:32:24.089Z,98373.56
2022-07-29T04:34:50.677Z,98371.38
2022-07-29T04:37:17.432Z,98368.09
2022-07-29T04:39:44.015Z,98373.81
2022-07-29T04:42:10.678Z,98363.84
2022-07-29T04:44:39.632Z,98368.88
2022-07-29T04:47:09.682Z,98366.72
2022-07-29T04:49:39.069Z,98358.19
2022-07-29T04:52:06.443Z,98370.03
2022-07-29T04:54:33.138Z,98364.00
2022-07-29T04:56:59.925Z,98353.13
2022-07-29T04:59:27.612Z,98359.94
2022-07-29T05:01:54.317Z,98359.47
2022-07-29T05:04:21.225Z,98368.59
2022-07-29T05:06:48.219Z,98366.53
2022-07-29T05:09:14.898Z,98365.91
2022-07-29T05:11:41.573Z,98373.88
2022-07-29T05:14:08.119Z,98366.72
2022-07-29T05:16:34.748Z,98365.53
2022-07-29T05:19:01.293Z,98369.91
2022-07-29T05:21:27.898Z,98372.34
2022-07-29T05:23:54.495Z,98371.88
2022-07-29T05:26:21.086Z,98376.16
2022-07-29T05:28:47.653Z,98373.63
2022-07-29T05:31:15.661Z,98367.16
2022-07-29T05:33:43.055Z,98373.31
2022-07-29T05:36:09.769Z,98381.28
2022-07-29T05:38:37.273Z,98389.44
2022-07-29T05:41:05.229Z,98388.91
2022-07-29T05:43:32.283Z,98393.31
2022-07-29T05:45:59.413Z,98393.34
2022-07-29T05:48:26.557Z,98399.34
2022-07-29T05:50:53.918Z,98399.22
2022-07-29T05:53:21.037Z,98404.13
2022-07-29T05:55:48.766Z,98393.34
2022-07-29T05:58:15.353Z,98394.41
2022-07-29T06:00:41.970Z,98399.72
2022-07-29T06:03:08.599Z,98401.38
2022-07-29T06:05:35.249Z,98403.47
2022-07-29T06:08:02.000Z,98401.81
2022-07-29T06:10:28.685Z,98405.47
2022-07-29T06:12:55.667Z,98412.66
2022-07-29T06:15:22.457Z,98410.72
2022-07-29T06:18:00.050Z,98413.31
2022-07-29T06:20:31.729Z,98420.97
2022-07-29T06:22:59.625Z,98414.31
2022-07-29T06:25:27.417Z,98411.84
2022-07-29T06:27:54.135Z,98402.31
2022-07-29T06:30:20.827Z,98417.41
2022-07-29T06:32:48.113Z,98420.22
2022-07-29T06:38:01.821Z,98423.00
2022-07-29T06:40:51.825Z,98423.44
2022-07-29T06:43:18.874Z,98418.81
2022-07-29T06:45:45.485Z,98418.75
2022-07-29T06:48:12.211Z,98416.53
2022-07-29T06:50:38.799Z,98413.69
2022-07-29T06:53:05.418Z,98417.81
2022-07-29T06:55:32.317Z,98421.66
2022-07-29T06:57:58.978Z,98415.72
2022-07-29T07:00:25.914Z,98421.66
2022-07-29T07:02:52.638Z,98418.34
2022-07-29T07:05:19.266Z,98409.91
2022-07-29T07:07:45.901Z,98411.38
2022-07-29T07:10:12.488Z,98419.22
2022-07-29T07:12:39.225Z,98417.88
2022-07-29T07:15:06.676Z,98416.28
2022-07-29T07:17:33.432Z,98414.41
2022-07-29T07:19:59.933Z,98419.91
2022-07-29T07:22:26.511Z,98412.81
2022-07-29T07:24:53.105Z,98395.03
2022-07-29T07:27:19.743Z,98379.56
2022-07-29T07:29:46.272Z,98397.50
2022-07-29T07:32:14.502Z,98395.03
2022-07-29T07:34:41.154Z,98393.25
2022-07-29T07:37:07.909Z,98385.47
2022-07-29T07:39:34.474Z,98393.75
2022-07-29T07:42:01.166Z,98391.84
2022-07-29T07:44:27.745Z,98384.84
2022-07-29T07:46:54.671Z,98380.97
2022-07-29T07:49:21.637Z,98377.84
2022-07-29T07:51:50.499Z,98374.44
2022-07-29T07:54:20.473Z,98374.09
2022-07-29T07:56:49.934Z,98360.34
2022-07-29T07:59:20.002Z,98370.81
2022-07-29T08:01:47.844Z,98364.13
2022-07-29T08:04:27.730Z,98360.22
2022-07-29T08:06:56.174Z,98370.69
2022-07-29T08:09:30.994Z,98371.19
2022-07-29T08:11:59.769Z,98374.47
2022-07-29T08:14:26.807Z,98366.50
2022-07-29T08:16:53.561Z,98369.59
2022-07-29T08:19:20.560Z,98354.91
2022-07-29T08:21:47.292Z,98371.38
2022-07-29T08:24:32.327Z,98375.47
2022-07-29T08:26:59.112Z,98374.66
2022-07-29T08:29:25.658Z,98370.25
2022-07-29T08:31:52.605Z,98375.66
2022-07-29T08:34:19.435Z,98368.59
2022-07-29T08:36:53.889Z,98354.81
2022-07-29T08:39:20.531Z,98356.47
2022-07-29T08:41:56.910Z,98356.81
2022-07-29T08:44:30.633Z,98362.66
2022-07-29T08:46:57.938Z,98352.97
2022-07-29T08:49:24.640Z,98350.03
2022-07-29T08:51:52.552Z,98348.59
2022-07-29T08:54:20.888Z,98356.44
2022-07-29T08:56:51.010Z,98347.91
2022-07-29T08:59:21.791Z,98350.06
2022-07-29T09:01:51.994Z,98350.38
2022-07-29T09:04:20.033Z,98347.91
2022-07-29T09:06:50.289Z,98343.63
2022-07-29T09:09:16.986Z,98342.63
2022-07-29T09:11:43.901Z,98339.97
2022-07-29T09:14:15.324Z,98337.47
2022-07-29T09:16:56.471Z,98340.63
2022-07-29T09:19:25.962Z,98340.41
2022-07-29T09:21:59.518Z,98328.84
2022-07-29T09:24:45.981Z,98324.91
2022-07-29T09:27:20.886Z,98317.16
2022-07-29T09:29:48.317Z,98307.16
2022-07-29T09:32:14.912Z,98306.56
2022-07-29T09:34:41.575Z,98294.75
2022-07-29T09:37:08.541Z,98302.66
2022-07-29T09:39:38.961Z,98297.22
2022-07-29T09:42:07.036Z,98301.56
2022-07-29T09:44:49.446Z,98293.88
2022-07-29T09:47:22.687Z,98300.41
2022-07-29T09:49:56.259Z,98288.78
2022-07-29T09:52:22.935Z,98288.50
2022-07-29T09:54:49.618Z,98286.88
2022-07-29T09:57:30.335Z,98291.94
2022-07-29T10:00:00.208Z,98292.69
2022-07-29T10:02:35.168Z,98280.91
2022-07-29T10:05:04.556Z,98290.13
2022-07-29T10:07:53.469Z,98292.00
2022-07-29T10:10:32.437Z,98284.81
2022-07-29T10:13:06.344Z,98292.78
2022-07-29T10:15:41.709Z,98279.03
2022-07-29T10:18:09.812Z,98272.78
2022-07-29T10:20:36.860Z,98271.44
2022-07-29T10:23:03.802Z,98266.00
2022-07-29T10:25:30.601Z,98261.31
2022-07-29T10:27:57.720Z,98264.47
2022-07-29T10:30:25.931Z,98247.88
2022-07-29T10:32:55.957Z,98253.16
2022-07-29T10:35:44.230Z,98254.16
2022-07-29T10:38:47.098Z,98244.06
2022-07-29T10:41:43.772Z,98235.28
2022-07-29T10:44:23.173Z,98239.53
2022-07-29T10:46:51.696Z,98236.84
2022-07-29T10:49:27.155Z,98242.09
2022-07-29T10:52:08.191Z,98237.81
2022-07-29T10:54:38.200Z,98234.78
2022-07-29T10:57:17.811Z,98230.13
2022-07-29T10:59:46.693Z,98233.81
2022-07-29T11:02:42.334Z,98224.28
2022-07-29T11:05:18.132Z,98226.44
2022-07-29T11:08:19.727Z,98228.00
2022-07-29T11:10:49.554Z,98228.16
2022-07-29T11:13:47.198Z,98228.16
2022-07-29T11:16:16.428Z,98229.84
2022-07-29T11:19:16.255Z,98223.25
2022-07-29T11:21:55.346Z,98221.34
2022-07-29T11:24:33.145Z,98219.22
2022-07-29T11:27:13.860Z,98226.13
2022-07-29T11:29:54.664Z,98224.84
2022-07-29T11:32:24.405Z,98225.63
2022-07-29T11:35:17.280Z,98215.09
2022-07-29T11:37:52.645Z,98221.13
2022-07-29T11:40:24.469Z,98227.19
2022-07-29T11:42:52.594Z,98217.44
2022-07-29T11:45:44.913Z,98227.19
2022-07-29T11:48:29.854Z,98228.50
2022-07-29T11:51:00.033Z,98232.69
2022-07-29T11:53:28.927Z,98225.72
2022-07-29T11:56:00.826Z,98225.13
2022-07-29T11:58:29.349Z,98220.47
2022-07-29T12:00:57.674Z,98220.06
2022-07-29T12:03:35.196Z,98215.97
2022-07-29T12:06:02.521Z,98225.84
2022-07-29T12:08:29.230Z,98226.69
2022-07-29T12:10:55.897Z,98216.63
2022-07-29T12:13:23.048Z,98213.22
2022-07-29T12:16:05.428Z,98208.03
2022-07-29T12:18:32.226Z,98207.50
2022-07-29T12:21:03.370Z,98199.66
2022-07-29T12:23:34.843Z,98197.41
2022-07-29T12:26:07.438Z,98195.38
2022-07-29T12:28:39.964Z,98196.81
2022-07-29T12:31:13.794Z,98195.31
2022-07-29T12:33:40.837Z,98199.13
2022-07-29T12:36:10.480Z,98189.66
2022-07-29T12:38:41.850Z,98191.63
2022-07-29T12:41:08.619Z,98196.81
2022-07-29T12:43:35.383Z,98210.06
2022-07-29T12:46:14.543Z,98205.56
2022-07-29T12:48:43.673Z,98202.78
2022-07-29T12:51:12.653Z,98212.25
2022-07-29T12:53:39.545Z,98201.72
2022-07-29T12:56:40.615Z,98203.13
2022-07-29T12:59:21.816Z,98210.09
2022-07-29T13:01:51.072Z,98199.81
2022-07-29T13:04:28.905Z,98214.97
2022-07-29T13:07:10.360Z,98192.88
2022-07-29T13:09:42.679Z,98205.22
2022-07-29T13:12:14.232Z,98198.06
2022-07-29T13:14:46.227Z,98205.97
2022-07-29T13:17:16.524Z,98227.34
2022-07-29T13:19:49.396Z,98226.34
2022-07-29T13:22:23.195Z,98244.41
2022-07-29T13:24:54.557Z,98243.63
2022-07-29T13:27:29.912Z,98238.28
2022-07-29T13:29:58.941Z,98244.88
2022-07-29T13:32:28.918Z,98248.88
2022-07-29T13:35:05.405Z,98247.97
2022-07-29T13:37:35.074Z,98243.75
2022-07-29T13:40:04.189Z,98235.97
2022-07-29T13:42:31.401Z,98230.84
2022-07-29T13:44:58.315Z,98231.59
2022-07-29T13:47:31.890Z,98227.88
2022-07-29T13:50:00.162Z,98223.25
2022-07-29T13:52:26.759Z,98222.16
2022-07-29T13:54:53.546Z,98226.41
2022-07-29T13:57:20.197Z,98225.66
2022-07-29T13:59:50.611Z,98237.19
2022-07-29T14:02:20.428Z,98220.53
2022-07-29T14:04:47.234Z,98228.31
2022-07-29T14:07:16.318Z,98235.53
2022-07-29T14:09:43.537Z,98238.91
2022-07-29T14:12:10.427Z,98240.34
2022-07-29T14:14:37.534Z,98235.63
2022-07-29T14:17:07.258Z,98241.22
2022-07-29T14:19:36.730Z,98242.00
2022-07-29T14:22:05.058Z,98250.66
2022-07-29T14:24:32.310Z,98255.25
2022-07-29T14:26:59.280Z,98265.25
2022-07-29T14:29:37.636Z,98272.84
2022-07-29T14:32:11.405Z,98270.94
2022-07-29T14:34:39.128Z,98275.41
2022-07-29T14:37:06.622Z,98294.88
2022-07-29T14:39:36.128Z,98296.16
2022-07-29T14:42:06.300Z,98318.53
2022-07-29T14:44:33.189Z,98307.59
2022-07-29T14:47:01.140Z,98315.78
2022-07-29T14:49:35.309Z,98316.13
2022-07-29T14:52:02.102Z,98290.47
2022-07-29T14:54:28.887Z,98289.28
2022-07-29T14:56:57.994Z,98279.41
2022-07-29T14:59:24.927Z,98269.72
2022-07-29T15:01:51.563Z,98248.97
2022-07-29T15:04:18.230Z,98258.94
2022-07-29T15:06:44.845Z,98260.72
2022-07-29T15:09:11.658Z,98278.59
2022-07-29T15:11:38.857Z,98277.28
2022-07-29T15:14:06.712Z,98279.91
2022-07-29T15:16:33.732Z,98263.53
2022-07-29T15:19:01.340Z,98270.25
2022-07-29T15:21:28.398Z,98275.47
2022-07-29T15:23:55.089Z,98274.69
2022-07-29T15:26:22.015Z,98262.56
2022-07-29T15:28:49.136Z,98264.22
2022-07-29T15:31:16.022Z,98273.38
2022-07-29T15:33:42.740Z,98273.53
2022-07-29T15:36:09.613Z,98262.94
2022-07-29T15:38:36.305Z,98256.44
2022-07-29T15:41:08.927Z,98246.97
2022-07-29T15:43:38.659Z,98248.09
2022-07-29T15:46:23.876Z,98229.94
2022-07-29T15:48:50.864Z,98239.41
2022-07-29T15:51:17.503Z,98227.84
2022-07-29T15:53:44.108Z,98216.06
2022-07-29T15:56:20.879Z,98212.34
2022-07-29T15:58:47.394Z,98228.66
2022-07-29T16:01:14.547Z,98228.03
2022-07-29T16:03:45.915Z,98221.81
2022-07-29T16:06:13.223Z,98209.56
2022-07-29T16:08:39.887Z,98205.78
2022-07-29T16:11:06.486Z,98219.34
2022-07-29T16:13:33.116Z,98224.41
2022-07-29T16:16:06.638Z,98234.06
2022-07-29T16:18:33.520Z,98229.16
2022-07-29T16:21:00.194Z,98224.91
2022-07-29T16:23:26.888Z,98204.00
2022-07-29T16:26:01.392Z,98201.22
2022-07-29T16:28:30.285Z,98193.72
2022-07-29T16:30:57.322Z,98195.00
2022-07-29T16:33:24.747Z,98202.03
2022-07-29T16:35:52.789Z,98207.91
2022-07-29T16:38:19.617Z,98193.38
2022-07-29T16:40:46.559Z,98186.34
2022-07-29T16:43:13.285Z,98195.66
2022-07-29T16:45:45.133Z,98183.09
2022-07-29T16:48:18.059Z,98182.28
2022-07-29T16:50:46.015Z,98188.81
2022-07-29T16:53:12.899Z,98187.50
2022-07-29T16:55:42.466Z,98191.25
2022-07-29T16:58:10.860Z,98191.91
2022-07-29T17:00:37.787Z,98195.03
2022-07-29T17:03:05.585Z,98190.28
2022-07-29T17:05:52.569Z,98191.75
2022-07-29T17:08:19.174Z,98182.22
2022-07-29T17:10:45.761Z,98191.56
2022-07-29T17:13:12.448Z,98199.19
2022-07-29T17:15:39.092Z,98204.94
2022-07-29T17:18:12.698Z,98194.63
2022-07-29T17:20:41.411Z,98190.72
2022-07-29T17:23:07.982Z,98203.81
2022-07-29T17:25:34.977Z,98203.00
2022-07-29T17:28:01.594Z,98197.63
2022-07-29T17:30:29.618Z,98194.53
2022-07-29T17:32:56.479Z,98195.84
2022-07-29T17:35:41.754Z,98190.13
2022-07-29T17:38:08.364Z,98193.38
2022-07-29T17:40:34.988Z,98189.78
2022-07-29T17:43:01.716Z,98199.91
2022-07-29T17:45:49.455Z,98210.34
2022-07-29T17:48:15.002Z,98219.84
2022-07-29T17:50:42.016Z,98224.56
2022-07-29T17:53:15.562Z,98231.75
2022-07-29T17:55:48.629Z,98231.75
2022-07-29T17:58:16.009Z,98243.69
2022-07-29T18:00:43.218Z,98241.22
2022-07-29T18:03:10.151Z,98247.22
2022-07-29T18:05:37.385Z,98230.56
2022-07-29T18:08:04.220Z,98240.75
2022-07-29T18:10:31.326Z,98242.75
2022-07-29T18:12:58.010Z,98241.59
2022-07-29T18:15:24.593Z,98243.22
2022-07-29T18:17:57.218Z,98238.28
2022-07-29T18:20:25.899Z,98238.63
2022-07-29T18:22:52.566Z,98240.22
2022-07-29T18:25:19.137Z,98237.72
2022-07-29T18:27:45.784Z,98239.84
2022-07-29T18:30:13.007Z,98236.09
2022-07-29T18:32:39.764Z,98231.44
2022-07-29T18:35:07.115Z,98230.81
2022-07-29T18:38:01.580Z,98224.28
2022-07-29T18:40:23.812Z,98235.19
2022-07-29T18:42:50.373Z,98235.06
2022-07-29T18:45:19.239Z,98241.03
2022-07-29T18:47:47.486Z,98236.03
2022-07-29T18:50:14.726Z,98235.22
2022-07-29T18:52:41.814Z,98232.16
2022-07-29T18:55:08.938Z,98222.50
2022-07-29T18:57:54.452Z,98223.50
2022-07-29T19:00:22.728Z,98227.22
2022-07-29T19:02:50.001Z,98233.16
2022-07-29T19:05:16.667Z,98230.84
2022-07-29T19:07:44.714Z,98234.09
2022-07-29T19:10:12.292Z,98230.94
2022-07-29T19:12:39.152Z,98225.69
2022-07-29T19:15:07.548Z,98243.53
2022-07-29T19:17:34.188Z,98238.06
2022-07-29T19:20:01.015Z,98238.47
2022-07-29T19:22:27.972Z,98248.22
2022-07-29T19:24:54.731Z,98247.47
2022-07-29T19:27:21.429Z,98242.94
2022-07-29T19:29:48.157Z,98251.25
2022-07-29T19:32:25.066Z,98257.22
2022-07-29T19:35:11.567Z,98263.72
2022-07-29T19:37:38.588Z,98260.34
2022-07-29T19:40:06.594Z,98262.31
2022-07-29T19:42:33.560Z,98273.94
2022-07-29T19:45:00.156Z,98276.47
2022-07-29T19:47:26.895Z,98271.19
2022-07-29T19:49:53.565Z,98275.06
2022-07-29T19:52:20.207Z,98261.88
2022-07-29T19:54:46.761Z,98282.53
2022-07-29T19:57:13.502Z,98283.63
2022-07-29T19:59:40.943Z,98284.56
2022-07-29T20:02:10.693Z,98286.53
2022-07-29T20:04:38.489Z,98298.81
2022-07-29T20:07:05.657Z,98294.31
2022-07-29T20:09:32.321Z,98289.34
2022-07-29T20:11:59.153Z,98295.72
2022-07-29T20:14:25.979Z,98297.53
2022-07-29T20:16:54.256Z,98298.13
2022-07-29T20:19:21.056Z,98296.09
2022-07-29T20:21:47.803Z,98303.50
2022-07-29T20:24:14.539Z,98303.00
2022-07-29T20:26:41.062Z,98306.31
2022-07-29T20:29:07.730Z,98308.16
2022-07-29T20:31:34.667Z,98314.47
2022-07-29T20:34:02.005Z,98302.19
2022-07-29T20:36:28.945Z,98302.78
2022-07-29T20:38:56.174Z,98307.13
2022-07-29T20:41:23.325Z,98310.63
2022-07-29T20:43:50.112Z,98307.31
2022-07-29T20:46:16.962Z,98309.88
2022-07-29T20:48:43.730Z,98314.50
2022-07-29T20:51:10.975Z,98315.28
2022-07-29T20:53:38.483Z,98311.63
2022-07-29T20:56:05.661Z,98318.38
2022-07-29T20:58:34.000Z,98328.25
2022-07-29T21:01:01.174Z,98319.00
2022-07-29T21:03:27.795Z,98330.91
2022-07-29T21:05:54.418Z,98327.47
2022-07-29T21:08:21.046Z,98329.56
2022-07-29T21:10:48.387Z,98330.38
2022-07-29T21:13:15.128Z,98324.91
2022-07-29T21:15:45.330Z,98328.78
2022-07-29T21:18:27.649Z,98337.22
2022-07-29T21:20:58.258Z,98328.72
2022-07-29T21:23:25.997Z,98321.38
2022-07-29T21:25:54.207Z,98325.00
2022-07-29T21:28:26.608Z,98331.06
2022-07-29T21:30:55.087Z,98328.13
2022-07-29T21:33:22.053Z,98337.34
2022-07-29T21:36:26.745Z,98327.81
2022-07-29T21:38:36.497Z,98323.41
2022-07-29T21:41:04.648Z,98323.69
2022-07-29T21:43:31.841Z,98322.56
2022-07-29T21:45:59.804Z,98323.59
2022-07-29T21:48:27.741Z,98323.75
2022-07-29T21:50:54.314Z,98328.66
2022-07-29T21:53:22.900Z,98331.53
2022-07-29T21:55:54.295Z,98315.75
2022-07-29T21:58:22.927Z,98311.63
2022-07-29T22:00:49.694Z,98317.41
2022-07-29T22:03:16.421Z,98317.31
2022-07-29T22:05:43.067Z,98319.22
2022-07-29T22:08:09.954Z,98327.53
2022-07-29T22:10:37.013Z,98315.75
2022-07-29T22:13:03.991Z,98314.00
2022-07-29T22:15:31.196Z,98304.75
2022-07-29T22:17:58.358Z,98323.44
2022-07-29T22:20:24.962Z,98315.72
2022-07-29T22:22:51.796Z,98318.19
2022-07-29T22:25:19.616Z,98318.22
2022-07-29T22:27:46.701Z,98321.78
2022-07-29T22:30:14.168Z,98326.19
2022-07-29T22:32:41.227Z,98327.28
2022-07-29T22:35:08.406Z,98319.78
2022-07-29T22:37:35.242Z,98317.31
2022-07-29T22:40:02.324Z,98317.81
2022-07-29T22:42:29.226Z,98320.56
2022-07-29T22:44:56.025Z,98319.91
2022-07-29T22:47:38.774Z,98315.38
2022-07-29T22:49:49.625Z,98325.88
2022-07-29T22:52:16.213Z,98315.81
2022-07-29T22:54:43.393Z,98322.72
2022-07-29T22:57:10.110Z,98323.72
2022-07-29T22:59:37.575Z,98316.31
2022-07-29T23:02:04.244Z,98318.38
2022-07-29T23:04:30.833Z,98322.38
2022-07-29T23:06:57.672Z,98325.06
2022-07-29T23:09:24.678Z,98324.22
2022-07-29T23:11:51.794Z,98329.25
2022-07-29T23:14:18.335Z,98310.09
2022-07-29T23:16:45.211Z,98323.09
2022-07-29T23:19:11.956Z,98322.38
2022-07-29T23:21:38.639Z,98314.41
2022-07-29T23:24:05.297Z,98315.19
2022-07-29T23:26:32.037Z,98324.44
2022-07-29T23:28:58.634Z,98326.63
2022-07-29T23:31:25.309Z,98329.59
2022-07-29T23:33:51.942Z,98323.19
2022-07-29T23:36:20.787Z,98314.72
2022-07-29T23:38:48.167Z,98313.38
2022-07-29T23:41:15.546Z,98316.78
2022-07-29T23:43:42.122Z,98314.16
2022-07-29T23:46:08.941Z,98301.31
2022-07-29T23:48:35.707Z,98314.44
2022-07-29T23:51:02.318Z,98312.50
2022-07-29T23:53:28.943Z,98305.53
2022-07-29T23:55:55.950Z,98311.16
2022-07-29T23:58:22.791Z,98299.78
